Time;durP1;ratioP1;P1;durP2;ratioP2;P2;SDS_P1;SDS_P2;PMS_P1;PMS_P2;Temp;Humidity;BMP_temperature;BMP_pressure;BME280_temperature;BME280_humidity;BME280_pressure;Samples;Min_cycle;Max_cycle;Signal;HPM_P1;HPM_P2
2022/02/21 00:02:23;;;;;;;4.90;2.10;;;6.90;99.90;;;;;;4394308;28;657649;-69
2022/02/21 00:05:14;;;;;;;4.97;1.60;;;7.10;97.60;;;;;;4395207;28;655566;-69
2022/02/21 00:08:02;;;;;;;4.97;2.07;;;7.20;97.10;;;;;;4396964;28;655598;-69
2022/02/21 00:10:50;;;;;;;2.90;1.30;;;7.30;96.40;;;;;;4413056;28;655827;-71
2022/02/21 00:13:38;;;;;;;4.80;1.63;;;7.40;95.00;;;;;;4401764;28;656642;-70
2022/02/21 00:16:25;;;;;;;3.10;1.17;;;7.40;95.10;;;;;;4412511;28;655268;-71
2022/02/21 00:19:13;;;;;;;2.03;0.90;;;7.50;94.50;;;;;;4416959;28;656951;-70
2022/02/21 00:22:02;;;;;;;5.93;1.43;;;7.50;93.90;;;;;;4393575;28;656007;-71
2022/02/21 00:24:50;;;;;;;2.73;1.10;;;7.60;94.30;;;;;;4412023;28;655654;-70
2022/02/21 00:27:37;;;;;;;4.00;1.30;;;7.60;93.10;;;;;;4404385;28;656197;-71
2022/02/21 00:30:25;;;;;;;5.30;1.50;;;7.60;93.10;;;;;;4414626;28;656175;-70
2022/02/21 00:33:12;;;;;;;5.27;1.27;;;7.60;93.20;;;;;;4385326;28;655942;-71
2022/02/21 00:36:00;;;;;;;5.03;1.50;;;7.60;93.50;;;;;;4416507;28;655128;-71
2022/02/21 00:38:49;;;;;;;5.20;1.50;;;7.50;93.60;;;;;;4413976;28;656630;-71
2022/02/21 00:41:37;;;;;;;2.53;1.10;;;7.50;94.30;;;;;;4391028;28;656096;-70
2022/02/21 00:44:25;;;;;;;3.27;1.20;;;7.50;94.30;;;;;;4416543;28;656199;-70
2022/02/21 00:47:12;;;;;;;4.70;1.53;;;7.40;94.80;;;;;;4392650;28;656082;-70
2022/02/21 00:50:00;;;;;;;3.70;1.63;;;7.40;95.70;;;;;;4416037;28;655522;-71
2022/02/21 00:52:47;;;;;;;3.10;1.60;;;7.40;96.20;;;;;;4390986;28;655222;-71
2022/02/21 00:55:36;;;;;;;5.33;1.50;;;7.40;95.80;;;;;;4419287;28;655666;-71
2022/02/21 00:58:24;;;;;;;5.37;1.53;;;7.40;95.30;;;;;;4393060;28;656065;-71
2022/02/21 01:01:11;;;;;;;4.07;1.47;;;7.40;96.00;;;;;;4398746;28;655562;-71
2022/02/21 01:03:59;;;;;;;2.92;1.20;;;7.30;96.70;;;;;;4415321;28;656625;-71
2022/02/21 01:06:46;;;;;;;3.60;1.20;;;7.30;96.60;;;;;;4393865;28;655853;-71
2022/02/21 01:09:34;;;;;;;4.37;1.40;;;7.40;94.80;;;;;;4407270;28;655897;-71
2022/02/21 01:12:23;;;;;;;2.93;1.50;;;7.40;94.40;;;;;;4395737;28;655657;-71
2022/02/21 01:15:13;;;;;;;4.63;1.40;;;7.40;94.20;;;;;;4414537;28;655592;-70
2022/02/21 01:18:01;;;;;;;4.07;1.40;;;7.40;94.20;;;;;;4398609;28;655606;-71
2022/02/21 01:20:48;;;;;;;3.50;1.60;;;7.40;94.20;;;;;;4424365;28;655750;-71
2022/02/21 01:23:39;;;;;;;3.57;1.27;;;7.50;94.50;;;;;;4401648;28;655896;-71
2022/02/21 01:26:26;;;;;;;5.37;1.33;;;7.50;94.10;;;;;;4392441;28;655371;-71
2022/02/21 01:29:15;;;;;;;4.67;1.50;;;7.50;93.90;;;;;;4415646;28;656625;-71
2022/02/21 01:32:03;;;;;;;2.97;1.23;;;7.50;94.30;;;;;;4404357;28;657981;-71
2022/02/21 01:34:50;;;;;;;2.63;1.30;;;7.50;94.10;;;;;;4402603;28;656030;-71
2022/02/21 01:37:38;;;;;;;5.13;1.87;;;7.50;93.50;;;;;;4414751;28;656007;-71
2022/02/21 01:40:27;;;;;;;2.33;1.00;;;7.40;92.90;;;;;;4395380;28;655571;-70
2022/02/21 01:43:14;;;;;;;3.10;1.50;;;7.50;93.30;;;;;;4419832;28;655801;-70
2022/02/21 01:46:03;;;;;;;3.97;1.47;;;7.40;93.60;;;;;;4401437;28;655816;-70
2022/02/21 01:48:51;;;;;;;2.70;1.17;;;7.30;93.70;;;;;;4401256;28;656582;-70
2022/02/21 01:51:38;;;;;;;3.10;1.13;;;7.40;93.30;;;;;;4428603;28;656427;-70
2022/02/21 01:54:26;;;;;;;3.63;1.40;;;7.50;92.50;;;;;;4401575;28;656062;-70
2022/02/21 01:57:14;;;;;;;3.40;1.60;;;7.60;92.20;;;;;;4413339;28;656146;-70
2022/02/21 02:00:01;;;;;;;4.13;1.10;;;7.50;92.30;;;;;;4402676;28;655942;-70
2022/02/21 02:02:50;;;;;;;5.33;1.60;;;7.60;92.40;;;;;;4425096;28;656596;-70
2022/02/21 02:05:38;;;;;;;4.20;1.70;;;7.60;91.80;;;;;;4400364;28;655912;-70
2022/02/21 02:08:26;;;;;;;2.05;0.90;;;7.60;92.40;;;;;;4404851;28;655747;-69
2022/02/21 02:11:13;;;;;;;4.10;1.57;;;7.60;92.80;;;;;;4416785;28;657226;-70
2022/02/21 02:14:01;;;;;;;4.00;1.27;;;7.70;92.70;;;;;;4398544;28;656092;-71
2022/02/21 02:16:48;;;;;;;1.77;0.90;;;7.70;93.10;;;;;;4415591;28;656799;-70
2022/02/21 02:19:37;;;;;;;3.00;1.07;;;7.70;93.60;;;;;;4400901;28;655785;-70
2022/02/21 02:22:26;;;;;;;1.77;0.97;;;7.70;93.70;;;;;;4417590;28;655521;-71
2022/02/21 02:25:14;;;;;;;2.43;1.10;;;7.70;95.10;;;;;;4388917;28;656626;-70
2022/02/21 02:28:01;;;;;;;1.57;0.70;;;7.70;96.90;;;;;;4397394;28;656818;-71
2022/02/21 02:30:49;;;;;;;1.83;0.93;;;7.70;99.10;;;;;;4411741;28;656316;-71
2022/02/21 02:33:37;;;;;;;2.17;0.90;;;7.70;99.90;;;;;;4390737;28;655687;-71
2022/02/21 02:36:27;;;;;;;1.27;0.70;;;7.60;99.90;;;;;;4413693;28;655672;-70
2022/02/21 02:39:16;;;;;;;1.47;0.80;;;7.50;99.90;;;;;;4384087;28;655508;-70
2022/02/21 02:42:04;;;;;;;7.23;1.30;;;7.40;99.90;;;;;;4393162;28;656078;-71
2022/02/21 02:44:51;;;;;;;2.93;1.10;;;7.40;99.90;;;;;;4401484;28;655055;-70
2022/02/21 02:47:39;;;;;;;3.63;0.90;;;7.40;99.90;;;;;;4409435;28;656295;-70
2022/02/21 02:50:26;;;;;;;2.03;1.00;;;7.30;99.90;;;;;;4395244;28;655475;-70
2022/02/21 02:53:14;;;;;;;1.83;1.10;;;7.30;99.90;;;;;;4411722;28;657022;-69
2022/02/21 02:56:03;;;;;;;1.00;0.80;;;7.20;99.90;;;;;;4390438;28;656747;-69
2022/02/21 02:58:51;;;;;;;1.90;0.97;;;7.20;99.90;;;;;;4388169;28;655798;-69
2022/02/21 03:01:39;;;;;;;1.50;0.90;;;7.20;99.90;;;;;;4400336;28;656828;-69
2022/02/21 03:04:26;;;;;;;1.67;1.00;;;7.10;99.90;;;;;;4380824;28;655791;-69
2022/02/21 03:07:14;;;;;;;3.53;1.30;;;7.10;99.90;;;;;;4399375;28;656352;-69
2022/02/21 03:10:02;;;;;;;2.40;1.33;;;7.00;99.90;;;;;;4384730;28;657016;-69
2022/02/21 03:12:51;;;;;;;2.63;1.90;;;7.00;99.90;;;;;;4414830;28;655682;-69
2022/02/21 03:15:38;;;;;;;4.73;2.17;;;6.90;99.90;;;;;;4391442;28;655813;-69
2022/02/21 03:18:25;;;;;;;6.23;3.20;;;6.80;99.90;;;;;;4404112;28;655877;-69
2022/02/21 03:21:13;;;;;;;4.43;2.23;;;6.80;99.90;;;;;;4421865;28;657021;-70
2022/02/21 03:24:00;;;;;;;5.78;2.90;;;6.70;99.90;;;;;;4401294;28;657991;-71
2022/02/21 03:26:48;;;;;;;5.40;2.60;;;6.70;99.90;;;;;;4418255;28;657268;-71
2022/02/21 03:29:37;;;;;;;2.73;1.60;;;6.60;99.90;;;;;;4392172;28;655619;-71
2022/02/21 03:32:26;;;;;;;4.90;1.90;;;6.50;99.90;;;;;;4419338;28;655244;-71
2022/02/21 03:35:14;;;;;;;8.00;2.13;;;6.50;99.90;;;;;;4392771;28;657426;-71
2022/02/21 03:38:02;;;;;;;4.63;2.30;;;6.50;99.90;;;;;;4401352;28;656642;-71
2022/02/21 03:40:51;;;;;;;5.00;2.20;;;6.50;99.90;;;;;;4417103;28;655632;-71
2022/02/21 03:43:39;;;;;;;5.20;2.33;;;6.50;99.90;;;;;;4396893;28;655849;-72
2022/02/21 03:46:28;;;;;;;4.75;2.03;;;6.50;99.90;;;;;;4402239;28;655600;-74
2022/02/21 03:49:15;;;;;;;5.60;1.97;;;6.40;99.90;;;;;;4397757;28;655524;-71
2022/02/21 03:52:03;;;;;;;4.13;1.30;;;6.40;99.90;;;;;;4423390;28;656157;-73
2022/02/21 03:54:51;;;;;;;1.03;0.77;;;6.50;99.90;;;;;;4403343;28;655748;-76
2022/02/21 03:57:38;;;;;;;2.03;1.30;;;6.50;99.90;;;;;;4420609;28;657342;-76
2022/02/21 04:00:26;;;;;;;1.30;0.90;;;6.50;99.90;;;;;;4399952;28;655312;-78
2022/02/21 04:03:15;;;;;;;2.53;0.80;;;6.40;99.90;;;;;;4414390;28;656072;-74
2022/02/21 04:06:02;;;;;;;0.77;0.60;;;6.40;99.90;;;;;;4401521;28;656266;-77
2022/02/21 04:08:50;;;;;;;2.33;1.20;;;6.40;99.90;;;;;;4422247;28;655951;-76
2022/02/21 04:11:37;;;;;;;4.93;2.03;;;6.30;99.90;;;;;;4392590;28;657316;-75
2022/02/21 04:14:25;;;;;;;3.37;1.93;;;6.30;99.90;;;;;;4418736;28;655726;-75
2022/02/21 04:17:13;;;;;;;5.03;2.20;;;6.20;99.90;;;;;;4394196;28;656076;-75
2022/02/21 04:20:02;;;;;;;4.05;1.50;;;6.20;99.90;;;;;;4396625;28;656363;-74
2022/02/21 04:22:49;;;;;;;1.80;1.20;;;6.20;99.90;;;;;;4420083;28;655466;-73
2022/02/21 04:25:37;;;;;;;1.80;1.00;;;6.20;99.90;;;;;;4397810;28;655725;-75
2022/02/21 04:28:24;;;;;;;2.07;1.20;;;6.20;99.90;;;;;;4411445;28;655371;-75
2022/02/21 04:31:14;;;;;;;3.23;1.37;;;6.10;99.90;;;;;;4399637;28;655540;-74
2022/02/21 04:34:01;;;;;;;2.70;1.37;;;6.10;99.90;;;;;;4397052;28;656544;-76
2022/02/21 04:36:50;;;;;;;2.40;1.33;;;6.10;99.90;;;;;;4422284;28;656482;-75
2022/02/21 04:39:38;;;;;;;2.63;1.20;;;6.00;99.90;;;;;;4386834;28;655990;-75
2022/02/21 04:42:26;;;;;;;1.73;0.88;;;6.00;99.90;;;;;;4402149;28;656085;-74
2022/02/21 04:45:13;;;;;;;3.00;1.30;;;6.00;99.90;;;;;;4415431;28;655362;-75
2022/02/21 04:48:01;;;;;;;1.80;1.20;;;6.00;99.90;;;;;;4397041;28;656451;-75
2022/02/21 04:50:48;;;;;;;2.37;1.30;;;6.00;99.90;;;;;;4411515;28;657129;-75
2022/02/21 04:53:37;;;;;;;4.70;1.50;;;6.00;99.90;;;;;;4395805;28;655971;-74
2022/02/21 04:56:25;;;;;;;2.42;1.50;;;5.90;99.90;;;;;;4413416;28;655506;-75
2022/02/21 04:59:12;;;;;;;2.50;1.30;;;6.00;99.90;;;;;;4404016;28;656938;-75
2022/02/21 05:02:00;;;;;;;2.05;1.30;;;6.00;99.90;;;;;;4414121;28;656074;-75
2022/02/21 05:04:48;;;;;;;1.90;1.15;;;5.90;99.90;;;;;;4395450;28;656937;-75
2022/02/21 05:07:36;;;;;;;2.07;1.00;;;5.90;99.90;;;;;;4404922;28;655998;-75
2022/02/21 05:10:26;;;;;;;4.50;1.30;;;5.80;99.90;;;;;;4412387;28;656225;-75
2022/02/21 05:13:13;;;;;;;3.20;1.33;;;5.90;99.90;;;;;;4388239;28;655927;-75
2022/02/21 05:16:01;;;;;;;2.87;1.40;;;5.80;99.90;;;;;;4397848;28;656774;-75
2022/02/21 05:18:49;;;;;;;3.43;1.47;;;5.80;99.90;;;;;;4415242;28;656083;-75
2022/02/21 05:21:36;;;;;;;3.43;1.50;;;5.80;99.90;;;;;;4395039;28;655602;-74
2022/02/21 05:24:24;;;;;;;4.23;1.60;;;6.00;99.90;;;;;;4407373;28;656652;-75
2022/02/21 05:27:13;;;;;;;3.03;1.53;;;6.00;99.90;;;;;;4393619;28;655985;-75
2022/02/21 05:30:01;;;;;;;2.63;1.40;;;6.00;99.90;;;;;;4405282;28;655437;-75
2022/02/21 05:32:48;;;;;;;6.27;2.00;;;6.10;99.90;;;;;;4409169;28;656002;-74
2022/02/21 05:35:36;;;;;;;3.20;1.50;;;6.20;99.90;;;;;;4388887;28;655873;-75
2022/02/21 05:38:24;;;;;;;3.47;1.97;;;6.20;99.90;;;;;;4412045;28;655967;-75
2022/02/21 05:41:11;;;;;;;4.93;2.50;;;6.20;99.90;;;;;;4389111;28;655643;-75
2022/02/21 05:44:01;;;;;;;4.88;2.33;;;6.30;99.90;;;;;;4414424;28;656165;-76
2022/02/21 05:46:49;;;;;;;4.27;2.40;;;6.30;99.90;;;;;;4379201;28;656251;-75
2022/02/21 05:49:36;;;;;;;5.83;2.20;;;6.20;99.90;;;;;;4389237;28;655579;-74
2022/02/21 05:52:24;;;;;;;5.63;2.40;;;6.40;99.90;;;;;;4406677;28;655962;-75
2022/02/21 05:55:11;;;;;;;4.87;2.33;;;6.50;99.90;;;;;;4386923;28;656379;-76
2022/02/21 05:57:59;;;;;;;3.57;2.33;;;6.60;99.90;;;;;;4405458;28;656026;-75
2022/02/21 06:00:49;;;;;;;6.13;1.70;;;6.70;99.90;;;;;;4387515;28;655340;-76
2022/02/21 06:03:36;;;;;;;3.30;1.53;;;6.80;99.90;;;;;;4390181;28;655840;-75
2022/02/21 06:06:51;;;;;;;4.03;2.00;;;6.80;99.90;;;;;;4399536;28;656215;-77
2022/02/21 06:10:18;;;;;;;2.57;1.50;;;6.90;99.90;;;;;;4376584;28;655744;-75
2022/02/21 06:13:06;;;;;;;3.57;1.77;;;6.90;99.90;;;;;;4367522;28;655202;-75
2022/02/21 06:15:55;;;;;;;5.60;1.67;;;7.00;99.90;;;;;;4409459;28;656265;-75
2022/02/21 06:18:43;;;;;;;5.63;1.80;;;7.10;99.90;;;;;;4379570;28;657318;-74
2022/02/21 06:21:31;;;;;;;3.00;1.65;;;7.00;99.90;;;;;;4392139;28;655529;-75
2022/02/21 06:24:18;;;;;;;5.33;1.83;;;7.00;99.90;;;;;;4407853;28;656604;-75
2022/02/21 06:27:06;;;;;;;2.70;1.33;;;7.00;99.90;;;;;;4387414;28;655945;-75
2022/02/21 06:29:54;;;;;;;3.90;1.70;;;7.00;99.90;;;;;;4402758;28;656267;-75
2022/02/21 06:32:43;;;;;;;3.63;2.00;;;7.00;99.90;;;;;;4387811;28;656234;-75
2022/02/21 06:35:30;;;;;;;4.37;2.17;;;7.00;99.90;;;;;;4399236;28;655560;-76
2022/02/21 06:38:18;;;;;;;5.20;2.23;;;7.00;99.90;;;;;;4410689;28;656264;-76
2022/02/21 06:41:06;;;;;;;2.50;1.43;;;7.00;99.90;;;;;;4394964;28;656154;-75
2022/02/21 06:43:53;;;;;;;6.13;2.07;;;7.00;99.90;;;;;;4409248;28;656069;-76
2022/02/21 06:46:41;;;;;;;4.87;2.00;;;6.90;99.90;;;;;;4380494;28;656010;-75
2022/02/21 06:49:30;;;;;;;6.50;2.27;;;7.00;99.90;;;;;;4410678;28;655725;-76
2022/02/21 06:52:17;;;;;;;5.83;2.53;;;6.90;99.90;;;;;;4381935;28;656243;-76
2022/02/21 06:55:07;;;;;;;6.80;2.70;;;6.90;99.90;;;;;;4405011;28;655931;-75
2022/02/21 06:57:55;;;;;;;5.77;2.00;;;6.90;99.90;;;;;;4409206;28;655929;-76
2022/02/21 07:00:42;;;;;;;6.67;2.63;;;6.90;99.90;;;;;;4414245;28;655325;-73
2022/02/21 07:03:30;;;;;;;4.80;2.67;;;6.80;99.90;;;;;;4410694;28;655871;-73
2022/02/21 07:06:19;;;;;;;8.10;3.40;;;6.80;99.90;;;;;;4405754;28;656314;-73
2022/02/21 07:09:08;;;;;;;9.07;4.00;;;6.80;99.90;;;;;;4394804;28;656340;-74
2022/02/21 07:11:56;;;;;;;3.10;2.03;;;6.70;99.90;;;;;;4402642;28;655466;-72
2022/02/21 07:14:43;;;;;;;7.77;3.37;;;6.80;99.90;;;;;;4403115;28;658133;-73
2022/02/21 07:17:36;;;;;;;6.60;2.77;;;6.80;99.90;;;;;;4387058;28;655172;-73
2022/02/21 07:20:25;;;;;;;7.10;2.93;;;6.80;99.90;;;;;;4381888;28;656317;-74
2022/02/21 07:23:14;;;;;;;7.03;3.50;;;6.70;99.90;;;;;;4387323;28;656828;-73
2022/02/21 07:26:01;;;;;;;9.70;3.58;;;6.70;99.90;;;;;;4388079;28;655785;-73
2022/02/21 07:28:49;;;;;;;7.80;3.80;;;6.70;99.90;;;;;;4410358;28;656900;-73
2022/02/21 07:31:36;;;;;;;10.93;4.70;;;6.70;99.90;;;;;;4391040;28;656187;-73
2022/02/21 07:34:24;;;;;;;7.83;4.10;;;6.70;99.90;;;;;;4409472;28;656855;-73
2022/02/21 07:37:12;;;;;;;10.03;4.10;;;6.70;99.90;;;;;;4389881;28;655867;-73
2022/02/21 07:40:01;;;;;;;7.23;3.30;;;6.60;99.90;;;;;;4428340;28;656984;-74
2022/02/21 07:42:50;;;;;;;5.33;2.27;;;6.70;99.90;;;;;;4383752;28;655948;-73
2022/02/21 07:45:37;;;;;;;6.43;2.33;;;6.60;99.90;;;;;;4379798;28;656252;-74
2022/02/21 07:48:25;;;;;;;7.10;2.60;;;6.70;99.90;;;;;;4399994;28;655679;-74
2022/02/21 07:51:12;;;;;;;4.40;1.93;;;6.70;99.90;;;;;;4388176;28;656578;-74
2022/02/21 07:54:00;;;;;;;4.43;2.30;;;6.70;99.90;;;;;;4398804;28;655754;-74
2022/02/21 07:56:49;;;;;;;3.77;1.73;;;6.70;99.90;;;;;;4388666;28;656559;-72
2022/02/21 07:59:37;;;;;;;6.30;2.70;;;6.80;99.90;;;;;;4381364;28;655383;-74
2022/02/21 08:02:24;;;;;;;3.60;2.13;;;6.80;99.90;;;;;;4408631;28;655590;-74
2022/02/21 08:05:12;;;;;;;4.70;2.10;;;6.80;99.90;;;;;;4391294;28;655233;-73
2022/02/21 08:07:59;;;;;;;6.23;2.30;;;6.90;99.90;;;;;;4405242;28;655383;-74
2022/02/21 08:10:47;;;;;;;4.73;1.97;;;6.90;99.90;;;;;;4390188;28;655945;-74
2022/02/21 08:13:36;;;;;;;2.93;1.80;;;6.90;99.90;;;;;;4412015;28;655778;-74
2022/02/21 08:16:24;;;;;;;1.50;1.00;;;7.00;99.90;;;;;;4387861;28;656765;-75
2022/02/21 08:19:12;;;;;;;2.83;1.17;;;7.10;99.90;;;;;;4393767;28;655783;-75
2022/02/21 08:22:00;;;;;;;3.70;2.03;;;7.10;99.90;;;;;;4403091;28;655314;-75
2022/02/21 08:24:47;;;;;;;6.37;2.10;;;7.20;99.90;;;;;;4384927;28;656010;-74
2022/02/21 08:27:36;;;;;;;6.60;2.20;;;7.10;99.90;;;;;;4405850;28;655727;-74
2022/02/21 08:30:25;;;;;;;4.70;2.23;;;7.20;99.90;;;;;;4386160;28;656723;-75
2022/02/21 08:33:12;;;;;;;6.20;1.77;;;7.30;99.90;;;;;;4390284;28;656503;-74
2022/02/21 08:36:01;;;;;;;4.63;1.90;;;7.40;99.90;;;;;;4406706;28;656027;-74
2022/02/21 08:38:49;;;;;;;4.10;1.90;;;7.50;99.90;;;;;;4412756;28;656288;-74
2022/02/21 08:41:36;;;;;;;2.70;1.47;;;7.50;99.90;;;;;;4384331;28;655575;-74
2022/02/21 08:44:25;;;;;;;3.50;1.60;;;7.60;99.90;;;;;;4409633;28;656614;-74
2022/02/21 08:47:15;;;;;;;3.27;1.23;;;7.70;99.90;;;;;;4381393;28;656202;-75
2022/02/21 08:50:04;;;;;;;4.27;1.73;;;7.80;99.90;;;;;;4390124;28;655810;-75
2022/02/21 08:52:51;;;;;;;3.20;1.37;;;7.80;99.90;;;;;;4381002;28;655782;-74
2022/02/21 08:55:39;;;;;;;2.83;1.57;;;8.00;99.90;;;;;;4401511;28;655309;-74
2022/02/21 08:58:27;;;;;;;2.33;1.33;;;8.00;99.90;;;;;;4380739;28;655521;-76
2022/02/21 09:01:15;;;;;;;3.42;1.60;;;8.00;99.90;;;;;;4407570;28;655084;-74
2022/02/21 09:04:05;;;;;;;1.87;1.00;;;8.00;99.90;;;;;;4386352;28;656791;-75
2022/02/21 09:06:52;;;;;;;3.73;1.60;;;8.10;99.90;;;;;;4382246;28;655806;-74
2022/02/21 09:09:40;;;;;;;2.33;1.40;;;8.10;99.90;;;;;;4395390;28;655668;-74
2022/02/21 09:12:28;;;;;;;3.53;1.50;;;8.10;99.90;;;;;;4380059;28;656127;-73
2022/02/21 09:15:16;;;;;;;3.50;1.03;;;8.20;99.90;;;;;;4382715;28;655950;-73
2022/02/21 09:18:05;;;;;;;1.40;0.90;;;8.20;99.90;;;;;;4400996;28;655662;-74
2022/02/21 09:20:55;;;;;;;3.20;1.53;;;8.20;99.90;;;;;;4377144;28;655888;-74
2022/02/21 09:23:42;;;;;;;2.83;1.47;;;8.20;99.90;;;;;;4386015;28;655525;-73
2022/02/21 09:26:30;;;;;;;2.78;1.83;;;8.30;99.90;;;;;;4407688;28;655272;-73
2022/02/21 09:29:17;;;;;;;3.67;1.57;;;8.30;99.90;;;;;;4378405;28;656068;-74
2022/02/21 09:32:05;;;;;;;6.10;2.57;;;8.40;99.90;;;;;;4400411;28;655405;-74
2022/02/21 09:34:54;;;;;;;2.60;1.20;;;8.40;99.90;;;;;;4378384;28;656124;-75
2022/02/21 09:37:43;;;;;;;3.63;1.80;;;8.40;99.90;;;;;;4390152;28;655917;-74
2022/02/21 09:40:31;;;;;;;2.78;1.02;;;8.50;99.90;;;;;;4383748;28;655298;-74
2022/02/21 09:43:20;;;;;;;1.37;0.83;;;8.50;99.90;;;;;;4415984;28;656773;-73
2022/02/21 09:46:10;;;;;;;5.00;1.37;;;8.60;97.40;;;;;;4389401;28;656432;-74
2022/02/21 09:48:58;;;;;;;1.80;0.90;;;8.60;98.50;;;;;;4378998;28;657128;-73
2022/02/21 09:51:46;;;;;;;3.00;1.30;;;8.60;97.20;;;;;;4337068;28;1278818;-74
2022/02/21 09:54:35;;;;;;;2.37;1.10;;;8.60;99.90;;;;;;4402194;28;656691;-75
2022/02/21 09:57:23;;;;;;;2.40;1.20;;;8.70;96.50;;;;;;4389182;28;656163;-75
2022/02/21 10:00:12;;;;;;;1.93;1.10;;;8.70;97.80;;;;;;4383096;28;655725;-74
2022/02/21 10:02:59;;;;;;;3.37;1.50;;;8.60;96.10;;;;;;4395137;28;655951;-74
2022/02/21 10:05:48;;;;;;;2.35;1.33;;;8.60;96.60;;;;;;4393546;28;655497;-74
2022/02/21 10:08:36;;;;;;;3.20;1.60;;;8.50;98.90;;;;;;4388178;28;655792;-74
2022/02/21 10:11:28;;;;;;;3.93;1.73;;;8.50;97.10;;;;;;4411147;28;657101;-75
2022/02/21 10:14:16;;;;;;;2.30;1.13;;;8.50;98.20;;;;;;4367696;28;655260;-76
2022/02/21 10:17:04;;;;;;;6.27;1.27;;;8.50;98.10;;;;;;4410652;28;655282;-74
2022/02/21 10:19:55;;;;;;;3.40;1.60;;;8.50;99.80;;;;;;4387933;28;655656;-75
2022/02/21 10:22:59;;;;;;;2.70;1.80;;;8.50;97.70;;;;;;4391063;28;655805;-74
2022/02/21 10:25:54;;;;;;;3.27;1.73;;;8.40;98.70;;;;;;4365243;28;655516;-75
2022/02/21 10:28:44;;;;;;;3.28;1.73;;;8.40;98.90;;;;;;4351266;28;655524;-75
2022/02/21 10:31:31;;;;;;;4.93;2.07;;;8.40;99.90;;;;;;4385079;28;655169;-75
2022/02/21 10:34:19;;;;;;;4.60;1.90;;;8.30;99.90;;;;;;4398825;28;656332;-75
2022/02/21 10:37:07;;;;;;;3.10;1.67;;;8.30;99.90;;;;;;4384445;28;655905;-75
2022/02/21 10:40:05;;;;;;;1.80;1.00;;;8.10;99.90;;;;;;4393711;28;655133;-75
2022/02/21 10:43:02;;;;;;;1.63;1.00;;;7.70;99.90;;;;;;4358167;28;655675;-73
2022/02/21 10:45:51;;;;;;;3.83;1.13;;;7.10;99.90;;;;;;4374384;28;656072;-74
2022/02/21 10:48:42;;;;;;;1.80;0.80;;;6.70;99.90;;;;;;4383998;28;656303;-74
2022/02/21 10:51:33;;;;;;;2.03;0.90;;;6.40;99.90;;;;;;4385180;28;655595;-73
2022/02/21 10:54:31;;;;;;;2.93;1.20;;;6.20;99.90;;;;;;4366750;28;655657;-74
2022/02/21 10:57:19;;;;;;;1.90;0.90;;;6.00;99.90;;;;;;4385510;28;655947;-74
2022/02/21 11:00:09;;;;;;;1.80;0.83;;;6.00;99.90;;;;;;4381248;28;656313;-74
2022/02/21 11:02:58;;;;;;;3.20;0.77;;;5.90;99.90;;;;;;4382150;28;656162;-73
2022/02/21 11:05:46;;;;;;;2.57;0.97;;;5.80;99.90;;;;;;4405533;28;655508;-73
2022/02/21 11:08:36;;;;;;;3.17;1.00;;;5.80;99.90;;;;;;4427328;28;655936;-74
2022/02/21 11:11:23;;;;;;;2.53;1.17;;;5.80;99.90;;;;;;4400197;28;656745;-74
2022/02/21 11:14:11;;;;;;;3.10;1.17;;;5.70;99.90;;;;;;4393424;28;655615;-73
2022/02/21 11:16:59;;;;;;;5.97;1.30;;;5.60;99.90;;;;;;4404891;28;656261;-74
2022/02/21 11:19:48;;;;;;;7.00;1.80;;;5.60;99.90;;;;;;4387384;28;655715;-74
2022/02/21 11:22:36;;;;;;;7.90;1.50;;;5.40;99.90;;;;;;4381688;28;655526;-74
2022/02/21 11:25:29;;;;;;;3.30;1.87;;;5.30;99.90;;;;;;4407076;28;656115;-74
2022/02/21 11:28:21;;;;;;;5.50;2.20;;;5.20;99.90;;;;;;4387013;28;656129;-74
2022/02/21 11:31:08;;;;;;;4.57;1.73;;;5.20;99.90;;;;;;4380746;28;655844;-73
2022/02/21 11:33:59;;;;;;;5.43;2.23;;;5.20;99.90;;;;;;4379940;28;655569;-73
2022/02/21 11:36:57;;;;;;;5.47;1.97;;;5.20;99.90;;;;;;4384653;28;656577;-73
2022/02/21 11:39:45;;;;;;;7.63;2.40;;;5.30;99.90;;;;;;4377145;28;655297;-74
2022/02/21 11:42:34;;;;;;;7.50;2.38;;;5.40;99.90;;;;;;4381631;28;656667;-74
2022/02/21 11:45:23;;;;;;;6.40;2.35;;;5.50;99.90;;;;;;4379627;28;655627;-73
2022/02/21 11:48:13;;;;;;;5.83;2.70;;;5.50;99.90;;;;;;4382274;28;655311;-74
2022/02/21 11:51:01;;;;;;;7.77;2.70;;;5.50;99.90;;;;;;4386554;28;655953;-74
2022/02/21 11:53:50;;;;;;;7.60;2.70;;;5.60;99.90;;;;;;4406545;28;656171;-73
2022/02/21 11:56:57;;;;;;;5.87;2.90;;;5.60;99.90;;;;;;4386082;28;656086;-74
2022/02/21 11:59:45;;;;;;;6.03;3.00;;;5.70;99.90;;;;;;4376393;28;655859;-74
2022/02/21 12:02:32;;;;;;;9.17;3.30;;;5.60;99.90;;;;;;4386417;28;656933;-73
2022/02/21 12:05:22;;;;;;;6.13;3.17;;;5.60;99.90;;;;;;4407064;28;656064;-74
2022/02/21 12:08:20;;;;;;;6.80;3.60;;;5.60;99.90;;;;;;4381051;28;656055;-74
2022/02/21 12:11:19;;;;;;;9.17;4.10;;;5.70;99.90;;;;;;4367994;28;655321;-76
2022/02/21 12:14:22;;;;;;;8.93;4.33;;;5.70;99.90;;;;;;4388591;28;655670;-73
2022/02/21 12:17:11;;;;;;;10.75;4.28;;;5.70;99.90;;;;;;4378772;28;656356;-73
2022/02/21 12:19:59;;;;;;;12.20;4.00;;;5.70;99.90;;;;;;4396200;28;657386;-74
2022/02/21 12:23:07;;;;;;;8.53;3.70;;;5.70;99.90;;;;;;4383297;28;656629;-73
2022/02/21 12:26:16;;;;;;;6.80;3.20;;;5.70;99.90;;;;;;4370433;28;655624;-74
2022/02/21 12:29:12;;;;;;;9.20;3.37;;;5.70;99.90;;;;;;4388804;28;655618;-74
2022/02/21 12:32:02;;;;;;;5.53;2.83;;;5.80;99.90;;;;;;4381073;28;656037;-75
2022/02/21 12:34:50;;;;;;;8.30;3.50;;;5.80;99.90;;;;;;4381785;28;655531;-73
2022/02/21 12:37:38;;;;;;;8.73;3.70;;;5.90;99.90;;;;;;4373124;28;656857;-73
2022/02/21 12:40:26;;;;;;;12.98;4.25;;;6.00;99.90;;;;;;4381253;28;655397;-73
2022/02/21 12:43:15;;;;;;;12.67;4.23;;;6.00;99.90;;;;;;4402941;28;657707;-73
2022/02/21 12:46:03;;;;;;;9.70;3.47;;;5.90;99.90;;;;;;4381401;28;657049;-73
2022/02/21 12:48:51;;;;;;;11.73;3.97;;;5.90;99.90;;;;;;4387329;28;656472;-73
2022/02/21 12:51:39;;;;;;;10.03;3.63;;;5.80;99.90;;;;;;4410239;28;656398;-74
2022/02/21 12:54:27;;;;;;;11.47;3.20;;;5.80;99.90;;;;;;4385459;28;656488;-74
2022/02/21 12:57:15;;;;;;;12.07;3.73;;;5.80;99.90;;;;;;4397545;28;656163;-73
2022/02/21 13:00:05;;;;;;;13.17;3.37;;;5.70;99.90;;;;;;4382258;28;657782;-73
2022/02/21 13:02:53;;;;;;;7.00;2.73;;;5.60;99.90;;;;;;4381353;28;657478;-74
2022/02/21 13:05:41;;;;;;;12.17;3.20;;;5.70;99.90;;;;;;4400104;28;655398;-74
2022/02/21 13:08:36;;;;;;;7.37;2.37;;;5.60;99.90;;;;;;4373201;28;657937;-76
2022/02/21 13:11:25;;;;;;;6.37;1.83;;;5.60;99.90;;;;;;4367109;28;655251;-75
2022/02/21 13:14:13;;;;;;;7.90;2.30;;;5.40;99.90;;;;;;4386078;28;656200;-74
2022/02/21 13:17:04;;;;;;;7.03;2.70;;;5.30;99.90;;;;;;4389679;28;655704;-74
2022/02/21 13:19:52;;;;;;;6.63;2.40;;;5.10;99.90;;;;;;4392471;28;656057;-74
2022/02/21 13:22:40;;;;;;;6.30;2.43;;;4.90;99.90;;;;;;4408048;28;655657;-74
2022/02/21 13:25:27;;;;;;;6.27;2.40;;;4.90;99.90;;;;;;4396460;28;655276;-75
2022/02/21 13:28:16;;;;;;;2.93;1.40;;;4.80;99.90;;;;;;4416230;28;654860;-74
2022/02/21 13:31:04;;;;;;;4.23;1.90;;;4.50;99.90;;;;;;4386695;28;656618;-76
2022/02/21 13:33:53;;;;;;;5.63;1.50;;;3.90;99.90;;;;;;4391548;28;656857;-75
2022/02/21 13:36:42;;;;;;;4.60;1.90;;;3.50;99.90;;;;;;4388122;28;656059;-77
2022/02/21 13:39:30;;;;;;;6.50;1.87;;;3.20;99.90;;;;;;4414589;28;656005;-76
2022/02/21 13:42:19;;;;;;;5.90;1.80;;;3.00;99.90;;;;;;4392556;28;655790;-76
2022/02/21 13:45:22;;;;;;;4.40;1.97;;;3.00;99.90;;;;;;4391890;28;655498;-77
2022/02/21 13:48:10;;;;;;;7.40;2.40;;;2.90;99.90;;;;;;4384034;28;655872;-76
2022/02/21 13:51:00;;;;;;;8.37;2.03;;;2.90;99.90;;;;;;4391502;28;656404;-76
2022/02/21 13:53:48;;;;;;;8.30;1.90;;;2.90;99.90;;;;;;4392413;28;656847;-76
2022/02/21 13:56:36;;;;;;;5.57;2.13;;;3.00;99.90;;;;;;4408276;28;655108;-77
2022/02/21 13:59:24;;;;;;;8.30;2.67;;;3.10;99.90;;;;;;4414208;28;656209;-76
2022/02/21 14:02:24;;;;;;;12.48;3.80;;;3.20;99.90;;;;;;4391316;28;655840;-76
2022/02/21 14:05:12;;;;;;;10.87;4.63;;;3.40;99.90;;;;;;4392077;28;656800;-76
2022/02/21 14:08:02;;;;;;;9.03;4.63;;;3.40;99.90;;;;;;4415695;28;658699;-76
2022/02/21 14:10:56;;;;;;;11.10;4.83;;;3.80;99.90;;;;;;4395110;28;655136;-76
2022/02/21 14:13:43;;;;;;;15.67;4.70;;;5.00;99.90;;;;;;4393926;28;656283;-76
2022/02/21 14:16:32;;;;;;;11.90;4.70;;;7.80;99.90;;;;;;4394714;28;656763;-76
2022/02/21 14:19:21;;;;;;;11.40;4.60;;;9.40;86.70;;;;;;4408610;28;656504;-76
2022/02/21 14:22:10;;;;;;;10.47;4.13;;;10.10;75.80;;;;;;4414326;28;656928;-76
2022/02/21 14:24:59;;;;;;;9.57;3.53;;;10.00;74.00;;;;;;4388601;28;658518;-76
2022/02/21 14:27:48;;;;;;;10.83;4.20;;;9.30;72.10;;;;;;4388627;28;656551;-76
2022/02/21 14:30:36;;;;;;;9.97;3.73;;;8.30;79.20;;;;;;4393830;28;657355;-76
2022/02/21 14:33:23;;;;;;;7.20;3.50;;;7.70;85.20;;;;;;4417680;28;656240;-76
2022/02/21 14:36:11;;;;;;;10.07;3.57;;;7.90;89.30;;;;;;4391854;28;656167;-76
2022/02/21 14:38:59;;;;;;;11.23;3.40;;;8.00;85.80;;;;;;4411072;28;657121;-76